createdAt,value
2018-09-04T00:00:34.426Z,0
2018-09-04T00:01:33.621Z,0
2018-09-04T00:02:34.158Z,0
2018-09-04T00:03:34.121Z,0
2018-09-04T00:04:33.628Z,0
2018-09-04T00:05:34.105Z,0
2018-09-04T00:06:34.088Z,0
2018-09-04T00:07:34.086Z,0
2018-09-04T00:08:34.333Z,0
2018-09-04T00:09:34.064Z,0
2018-09-04T00:10:34.043Z,0
2018-09-04T00:11:33.765Z,0
2018-09-04T00:12:34.028Z,0
2018-09-04T00:13:34.012Z,0
2018-09-04T00:14:34.003Z,0
2018-09-04T00:15:34.251Z,0
2018-09-04T00:16:33.710Z,0
2018-09-04T00:17:34.230Z,0
2018-09-04T00:18:33.950Z,0
2018-09-04T00:19:33.415Z,0
2018-09-04T00:20:33.405Z,0
2018-09-04T00:21:33.927Z,0
2018-09-04T00:22:33.381Z,0
2018-09-04T00:23:33.895Z,0
2018-09-04T00:24:33.632Z,0
2018-09-04T00:25:33.878Z,0
2018-09-04T00:26:33.869Z,0
2018-09-04T00:27:33.588Z,0
2018-09-04T00:28:34.108Z,0
2018-09-04T00:29:33.571Z,0
2018-09-04T00:30:33.292Z,0
2018-09-04T00:31:33.807Z,0
2018-09-04T00:32:33.532Z,0
2018-09-04T00:33:34.047Z,0
2018-09-04T00:34:34.105Z,0
2018-09-04T00:35:33.767Z,0
2018-09-04T00:36:33.754Z,0
2018-09-04T00:37:33.473Z,0
2018-09-04T00:38:34.007Z,0
2018-09-04T00:39:33.710Z,0
2018-09-04T00:40:33.188Z,0
2018-09-04T00:41:33.973Z,0
2018-09-04T00:42:33.959Z,0
2018-09-04T00:43:33.420Z,0
2018-09-04T00:44:33.678Z,0
2018-09-04T00:45:33.648Z,0
2018-09-04T00:46:33.375Z,0
2018-09-04T00:47:33.632Z,0
2018-09-04T00:48:33.617Z,0
2018-09-04T00:49:33.662Z,0
2018-09-04T00:50:33.328Z,0
2018-09-04T00:51:33.318Z,0
2018-09-04T00:52:33.579Z,0
2018-09-04T00:53:33.567Z,0
2018-09-04T00:54:33.813Z,0
2018-09-04T00:55:33.537Z,0
2018-09-04T00:56:33.526Z,0
2018-09-04T00:57:33.513Z,0
2018-09-04T00:58:33.777Z,0
2018-09-04T00:59:33.234Z,0
2018-09-04T01:00:33.745Z,0
2018-09-04T01:01:33.518Z,0
2018-09-04T01:02:33.464Z,0
2018-09-04T01:03:33.450Z,0
2018-09-04T01:04:33.183Z,0
2018-09-04T01:05:33.234Z,0
2018-09-04T01:06:33.416Z,0
2018-09-04T01:07:32.877Z,0
2018-09-04T01:08:32.867Z,0
2018-09-04T01:09:33.385Z,0
2018-09-04T01:10:33.374Z,0
2018-09-04T01:11:33.351Z,0
2018-09-04T01:12:32.829Z,0
2018-09-04T01:13:33.599Z,0
2018-09-04T01:14:33.059Z,0
2018-09-04T01:15:33.579Z,0
2018-09-04T01:16:33.307Z,0
2018-09-04T01:17:33.492Z,0
2018-09-04T01:18:33.278Z,0
2018-09-04T01:19:33.011Z,0
2018-09-04T01:20:32.990Z,0
2018-09-04T01:21:33.515Z,0
2018-09-04T01:22:33.609Z,0
2018-09-04T01:23:32.707Z,0
2018-09-04T01:24:33.471Z,0
2018-09-04T01:25:33.472Z,0
2018-09-04T01:26:33.190Z,0
2018-09-04T01:27:33.181Z,0
2018-09-04T01:28:33.431Z,0
2018-09-04T01:29:33.155Z,0
2018-09-04T01:30:32.877Z,0
2018-09-04T01:31:33.393Z,0
2018-09-04T01:32:32.861Z,0
2018-09-04T01:33:33.113Z,0
2018-09-04T01:34:33.105Z,0
2018-09-04T01:35:32.824Z,0
2018-09-04T01:36:33.081Z,0
2018-09-04T01:37:32.813Z,0
2018-09-04T01:38:33.057Z,0
2018-09-04T01:39:33.035Z,0
2018-09-04T01:40:33.033Z,0
2018-09-04T01:41:33.022Z,0
2018-09-04T01:42:33.265Z,0
2018-09-04T01:43:33.257Z,0
2018-09-04T01:44:32.991Z,0
2018-09-04T01:45:32.974Z,0
2018-09-04T01:46:32.963Z,0
2018-09-04T01:47:32.959Z,0
2018-09-04T01:48:32.936Z,0
2018-09-04T01:49:33.198Z,0
2018-09-04T01:50:33.190Z,0
2018-09-04T01:51:32.636Z,0
2018-09-04T01:52:33.150Z,0
2018-09-04T01:53:33.150Z,0
2018-09-04T01:54:33.131Z,0
2018-09-04T01:55:32.851Z,0
2018-09-04T01:56:33.111Z,0
2018-09-04T01:57:32.574Z,0
2018-09-04T01:58:33.089Z,0
2018-09-04T01:59:33.074Z,0
2018-09-04T02:00:33.068Z,0
2018-09-04T02:01:32.780Z,0
2018-09-04T02:02:32.778Z,0
2018-09-04T02:03:33.023Z,0
2018-09-04T02:04:32.493Z,0
2018-09-04T02:05:33.012Z,0
2018-09-04T02:06:32.464Z,0
2018-09-04T02:07:32.451Z,0
2018-09-04T02:08:32.701Z,0
2018-09-04T02:09:32.708Z,0
2018-09-04T02:10:32.942Z,0
2018-09-04T02:11:32.409Z,0
2018-09-04T02:12:32.677Z,0
2018-09-04T02:13:32.923Z,0
2018-09-04T02:14:32.379Z,0
2018-09-04T02:15:32.098Z,0
2018-09-04T02:16:32.883Z,0
2018-09-04T02:17:32.866Z,0
2018-09-04T02:18:32.328Z,0
2018-09-04T02:19:32.876Z,0
2018-09-04T02:20:32.566Z,0
2018-09-04T02:21:32.834Z,0
2018-09-04T02:22:32.814Z,0
2018-09-04T02:23:32.531Z,0
2018-09-04T02:24:32.534Z,0
2018-09-04T02:25:32.781Z,0
2018-09-04T02:26:32.501Z,0
2018-09-04T02:27:32.766Z,0
2018-09-04T02:28:32.759Z,0
2018-09-04T02:29:32.474Z,0
2018-09-04T02:30:32.198Z,0
2018-09-04T02:31:32.442Z,0
2018-09-04T02:32:32.707Z,0
2018-09-04T02:33:32.682Z,0
2018-09-04T02:34:31.879Z,0
2018-09-04T02:35:32.135Z,0
2018-09-04T02:36:32.655Z,0
2018-09-04T02:37:32.672Z,0
2018-09-04T02:38:32.646Z,0
2018-09-04T02:39:32.619Z,0
2018-09-04T02:40:32.352Z,0
2018-09-04T02:41:32.331Z,0
2018-09-04T02:42:32.585Z,0
2018-09-04T02:43:32.305Z,0
2018-09-04T02:44:32.033Z,0
2018-09-04T02:45:31.762Z,0
2018-09-04T02:46:32.274Z,0
2018-09-04T02:47:32.528Z,0
2018-09-04T02:48:32.532Z,0
2018-09-04T02:49:31.981Z,0
2018-09-04T02:50:31.964Z,0
2018-09-04T02:51:32.223Z,0
2018-09-04T02:52:31.938Z,0
2018-09-04T02:53:32.461Z,0
2018-09-04T02:54:32.472Z,0
2018-09-04T02:55:31.911Z,0
2018-09-04T02:56:31.893Z,0
2018-09-04T02:57:32.150Z,0
2018-09-04T02:58:32.134Z,0
2018-09-04T02:59:32.403Z,0
2018-09-04T03:00:32.399Z,0
2018-09-04T03:01:31.841Z,0
2018-09-04T03:02:32.088Z,0
2018-09-04T03:03:32.082Z,0
2018-09-04T03:04:31.842Z,0
2018-09-04T03:05:32.332Z,0
2018-09-04T03:06:32.323Z,0
2018-09-04T03:07:32.307Z,0
2018-09-04T03:08:31.771Z,0
2018-09-04T03:09:32.280Z,0
2018-09-04T03:10:32.265Z,0
2018-09-04T03:11:31.727Z,0
2018-09-04T03:12:32.240Z,0
2018-09-04T03:13:32.562Z,0
2018-09-04T03:14:32.235Z,0
2018-09-04T03:15:31.686Z,0
2018-09-04T03:16:31.938Z,0
2018-09-04T03:17:31.865Z,0
2018-09-04T03:18:31.921Z,0
2018-09-04T03:19:31.912Z,0
2018-09-04T03:20:31.889Z,0
2018-09-04T03:21:31.928Z,0
2018-09-04T03:22:31.602Z,0
2018-09-04T03:23:32.120Z,0
2018-09-04T03:24:32.136Z,0
2018-09-04T03:25:31.860Z,0
2018-09-04T03:26:31.554Z,0
2018-09-04T03:27:31.822Z,0
2018-09-04T03:28:31.268Z,0
2018-09-04T03:29:31.787Z,0
2018-09-04T03:30:31.531Z,0
2018-09-04T03:31:32.035Z,0
2018-09-04T03:32:31.505Z,0
2018-09-04T03:33:31.741Z,0
2018-09-04T03:34:31.201Z,0
2018-09-04T03:35:31.443Z,0
2018-09-04T03:36:31.965Z,0
2018-09-04T03:37:31.165Z,0
2018-09-04T03:38:31.684Z,0
2018-09-04T03:39:31.138Z,0
2018-09-04T03:40:31.396Z,0
2018-09-04T03:41:31.909Z,0
2018-09-04T03:42:31.129Z,0
2018-09-04T03:43:31.364Z,0
2018-09-04T03:44:31.940Z,0
2018-09-04T03:45:31.605Z,0
2018-09-04T03:46:31.593Z,0
2018-09-04T03:47:31.311Z,0
2018-09-04T03:48:31.569Z,0
2018-09-04T03:49:31.566Z,0
2018-09-04T03:50:31.538Z,0
2018-09-04T03:51:31.272Z,0
2018-09-04T03:52:31.883Z,0
2018-09-04T03:53:31.790Z,0
2018-09-04T03:54:31.504Z,0
2018-09-04T03:55:31.494Z,0
2018-09-04T03:56:31.740Z,0
2018-09-04T03:57:31.465Z,0
2018-09-04T03:58:30.929Z,0
2018-09-04T03:59:31.186Z,0
2018-09-04T04:00:31.173Z,0
2018-09-04T04:01:32.136Z,0
2018-09-04T04:02:31.674Z,0
2018-09-04T04:03:31.401Z,0
2018-09-04T04:04:31.651Z,0
2018-09-04T04:05:31.117Z,0
2018-09-04T04:06:31.099Z,0
2018-09-04T04:07:31.091Z,0
2018-09-04T04:08:31.358Z,0
2018-09-04T04:09:31.598Z,0
2018-09-04T04:10:31.573Z,0
2018-09-04T04:11:31.578Z,0
2018-09-04T04:12:31.296Z,0
2018-09-04T04:13:31.286Z,0
2018-09-04T04:14:31.278Z,0
2018-09-04T04:15:31.261Z,0
2018-09-04T04:16:31.262Z,0
2018-09-04T04:17:31.236Z,0
2018-09-04T04:18:30.967Z,0
2018-09-04T04:19:31.277Z,4
2018-09-04T04:20:31.209Z,4
2018-09-04T04:21:31.463Z,4
2018-09-04T04:22:31.442Z,0
2018-09-04T04:23:31.169Z,4
2018-09-04T04:24:31.441Z,4
2018-09-04T04:25:31.144Z,4
2018-09-04T04:26:31.405Z,8
2018-09-04T04:27:31.133Z,8
2018-09-04T04:28:31.382Z,8
2018-09-04T04:29:31.364Z,12
2018-09-04T04:30:30.837Z,12
2018-09-04T04:31:31.081Z,16
2018-09-04T04:32:31.072Z,16
2018-09-04T04:33:31.070Z,16
2018-09-04T04:34:31.055Z,20
2018-09-04T04:35:30.771Z,24
2018-09-04T04:36:31.026Z,32
2018-09-04T04:37:31.062Z,36
2018-09-04T04:38:31.005Z,40
2018-09-04T04:39:31.257Z,44
2018-09-04T04:40:30.968Z,52
2018-09-04T04:41:31.222Z,56
2018-09-04T04:42:30.425Z,68
2018-09-04T04:43:30.938Z,72
2018-09-04T04:44:30.397Z,80
2018-09-04T04:45:31.198Z,88
2018-09-04T04:46:30.905Z,96
2018-09-04T04:47:30.359Z,108
2018-09-04T04:48:31.118Z,116
2018-09-04T04:49:30.606Z,124
2018-09-04T04:50:30.852Z,136
2018-09-04T04:51:30.851Z,152
2018-09-04T04:52:30.877Z,164
2018-09-04T04:53:30.561Z,180
2018-09-04T04:54:30.539Z,196
2018-09-04T04:55:30.531Z,208
2018-09-04T04:56:30.789Z,224
2018-09-04T04:57:31.045Z,236
2018-09-04T04:58:31.029Z,252
2018-09-04T04:59:30.754Z,268
2018-09-04T05:00:31.149Z,284
2018-09-04T05:01:30.731Z,296
2018-09-04T05:02:30.184Z,316
2018-09-04T05:03:30.707Z,336
2018-09-04T05:04:30.432Z,356
2018-09-04T05:05:30.412Z,376
2018-09-04T05:06:30.923Z,396
2018-09-04T05:07:30.932Z,416
2018-09-04T05:08:30.907Z,436
2018-09-04T05:09:30.900Z,456
2018-09-04T05:10:30.625Z,476
2018-09-04T05:11:31.220Z,492
2018-09-04T05:12:30.633Z,512
2018-09-04T05:13:30.341Z,524
2018-09-04T05:14:30.347Z,540
2018-09-04T05:15:30.296Z,560
2018-09-04T05:16:30.286Z,580
2018-09-04T05:17:30.804Z,604
2018-09-04T05:18:29.999Z,628
2018-09-04T05:19:30.248Z,656
2018-09-04T05:20:30.496Z,684
2018-09-04T05:21:30.488Z,716
2018-09-04T05:22:30.848Z,748
2018-09-04T05:23:30.925Z,776
2018-09-04T05:24:30.459Z,796
2018-09-04T05:25:30.438Z,812
2018-09-04T05:26:30.171Z,820
2018-09-04T05:27:30.677Z,816
2018-09-04T05:28:30.140Z,816
2018-09-04T05:29:30.596Z,832
2018-09-04T05:30:30.132Z,840
2018-09-04T05:31:30.376Z,848
2018-09-04T05:32:30.623Z,860
2018-09-04T05:33:30.611Z,872
2018-09-04T05:34:30.600Z,884
2018-09-04T05:35:30.334Z,912
2018-09-04T05:36:30.046Z,928
2018-09-04T05:37:30.043Z,960
2018-09-04T05:38:30.286Z,992
2018-09-04T05:39:30.304Z,1020
2018-09-04T05:40:30.517Z,1052
2018-09-04T05:41:29.995Z,1096
2018-09-04T05:42:30.243Z,1148
2018-09-04T05:43:30.232Z,1196
2018-09-04T05:44:30.215Z,1228
2018-09-04T05:45:30.459Z,1272
2018-09-04T05:46:30.510Z,1300
2018-09-04T05:47:30.182Z,1344
2018-09-04T05:48:29.907Z,1408
2018-09-04T05:49:30.164Z,1484
2018-09-04T05:50:29.880Z,1560
2018-09-04T05:51:29.869Z,1632
2018-09-04T05:52:29.592Z,1704
2018-09-04T05:53:29.581Z,1776
2018-09-04T05:54:30.106Z,1828
2018-09-04T05:55:30.093Z,1828
2018-09-04T05:56:29.815Z,1740
2018-09-04T05:57:29.796Z,1620
2018-09-04T05:58:30.311Z,1540
2018-09-04T05:59:30.038Z,1508
2018-09-04T06:00:30.031Z,1504
2018-09-04T06:01:30.281Z,1528
2018-09-04T06:02:30.000Z,1564
2018-09-04T06:03:29.728Z,1604
2018-09-04T06:04:29.993Z,1640
2018-09-04T06:05:29.965Z,1672
2018-09-04T06:06:29.961Z,1704
2018-09-04T06:07:29.949Z,1728
2018-09-04T06:08:30.212Z,1724
2018-09-04T06:09:29.668Z,1708
2018-09-04T06:10:29.647Z,1684
2018-09-04T06:11:29.916Z,1648
2018-09-04T06:12:29.624Z,1612
2018-09-04T06:13:29.624Z,1580
2018-09-04T06:14:29.605Z,1596
2018-09-04T06:15:29.588Z,1668
2018-09-04T06:16:29.840Z,1800
2018-09-04T06:17:29.822Z,1988
2018-09-04T06:18:30.091Z,2140
2018-09-04T06:19:30.082Z,2268
2018-09-04T06:20:29.530Z,2316
2018-09-04T06:21:29.519Z,2336
2018-09-04T06:22:29.772Z,2356
2018-09-04T06:23:29.499Z,2364
2018-09-04T06:24:29.752Z,2372
2018-09-04T06:25:30.007Z,2420
2018-09-04T06:26:30.002Z,2468
2018-09-04T06:27:29.451Z,2512
2018-09-04T06:28:29.975Z,2556
2018-09-04T06:29:30.255Z,2580
2018-09-04T06:30:29.695Z,2604
2018-09-04T06:31:29.400Z,2592
2018-09-04T06:32:29.394Z,2548
2018-09-04T06:33:29.656Z,2476
2018-09-04T06:34:29.647Z,2348
2018-09-04T06:35:29.714Z,2212
2018-09-04T06:36:29.747Z,2088
2018-09-04T06:37:29.626Z,1960
2018-09-04T06:38:29.594Z,1840
2018-09-04T06:39:29.580Z,1760
2018-09-04T06:40:29.861Z,1716
2018-09-04T06:41:29.559Z,1680
2018-09-04T06:42:29.553Z,1660
2018-09-04T06:43:29.269Z,1664
2018-09-04T06:44:29.535Z,1692
2018-09-04T06:45:29.511Z,1720
2018-09-04T06:46:29.316Z,1760
2018-09-04T06:47:29.757Z,1820
2018-09-04T06:48:29.479Z,1916
2018-09-04T06:49:29.472Z,2072
2018-09-04T06:50:29.715Z,2300
2018-09-04T06:51:29.439Z,2524
2018-09-04T06:52:29.702Z,2712
2018-09-04T06:53:29.156Z,2856
2018-09-04T06:54:29.743Z,2908
2018-09-04T06:55:29.390Z,2876
2018-09-04T06:56:29.318Z,2816
2018-09-04T06:57:29.370Z,2808
2018-09-04T06:58:29.102Z,2796
2018-09-04T06:59:29.349Z,2764
2018-09-04T07:00:29.603Z,2736
2018-09-04T07:01:29.327Z,2736
2018-09-04T07:02:29.577Z,2816
2018-09-04T07:03:29.304Z,2928
2018-09-04T07:04:29.295Z,2996
2018-09-04T07:05:29.553Z,3056
2018-09-04T07:06:29.273Z,3080
2018-09-04T07:07:29.273Z,3088
2018-09-04T07:08:29.510Z,3144
2018-09-04T07:09:29.504Z,3220
2018-09-04T07:10:29.485Z,3264
2018-09-04T07:11:29.481Z,3300
2018-09-04T07:12:28.951Z,3316
2018-09-04T07:13:29.191Z,3244
2018-09-04T07:14:29.186Z,3128
2018-09-04T07:15:29.169Z,3060
2018-09-04T07:16:28.896Z,3008
2018-09-04T07:17:29.145Z,2952
2018-09-04T07:18:28.885Z,2932
2018-09-04T07:19:28.868Z,2920
2018-09-04T07:20:28.855Z,2896
2018-09-04T07:21:29.116Z,2880
2018-09-04T07:22:28.844Z,2892
2018-09-04T07:23:29.553Z,2976
2018-09-04T07:24:28.817Z,3116
2018-09-04T07:25:28.809Z,3256
2018-09-04T07:26:29.063Z,3428
2018-09-04T07:27:29.315Z,3624
2018-09-04T07:28:29.297Z,3764
2018-09-04T07:29:28.499Z,3856
2018-09-04T07:30:29.016Z,3864
2018-09-04T07:31:29.262Z,3872
2018-09-04T07:32:29.269Z,3872
2018-09-04T07:33:29.254Z,3872
2018-09-04T07:34:28.719Z,3916
2018-09-04T07:35:28.968Z,3904
2018-09-04T07:36:28.447Z,3984
2018-09-04T07:37:28.946Z,4024
2018-09-04T07:38:28.928Z,4088
2018-09-04T07:39:28.932Z,4208
2018-09-04T07:40:29.176Z,4284
2018-09-04T07:41:28.902Z,4360
2018-09-04T07:42:28.365Z,4444
2018-09-04T07:43:29.143Z,4512
2018-09-04T07:44:28.611Z,4532
2018-09-04T07:45:28.597Z,4464
2018-09-04T07:46:28.859Z,4304
2018-09-04T07:47:28.840Z,4128
2018-09-04T07:48:28.621Z,4008
2018-09-04T07:49:28.290Z,3920
2018-09-04T07:50:28.548Z,3892
2018-09-04T07:51:28.797Z,3932
2018-09-04T07:52:29.055Z,4020
2018-09-04T07:53:28.781Z,4164
2018-09-04T07:54:28.771Z,4384
2018-09-04T07:55:28.764Z,4668
2018-09-04T07:56:28.226Z,5000
2018-09-04T07:57:29.019Z,5328
2018-09-04T07:58:28.736Z,5624
2018-09-04T07:59:28.452Z,5928
2018-09-04T08:00:28.765Z,6236
2018-09-04T08:01:28.968Z,6516
2018-09-04T08:02:28.691Z,6632
2018-09-04T08:03:28.414Z,6632
2018-09-04T08:04:28.672Z,6532
2018-09-04T08:05:28.932Z,6360
2018-09-04T08:06:28.920Z,6172
2018-09-04T08:07:28.920Z,6032
2018-09-04T08:08:28.386Z,5924
2018-09-04T08:09:28.368Z,5844
2018-09-04T08:10:28.886Z,5776
2018-09-04T08:11:28.889Z,5708
2018-09-04T08:12:28.606Z,5620
2018-09-04T08:13:28.331Z,5524
2018-09-04T08:14:28.312Z,5456
2018-09-04T08:15:28.575Z,5452
2018-09-04T08:16:28.959Z,5500
2018-09-04T08:17:28.827Z,5580
2018-09-04T08:18:28.541Z,5712
2018-09-04T08:19:28.271Z,5880
2018-09-04T08:20:28.388Z,6044
2018-09-04T08:21:28.252Z,6184
2018-09-04T08:22:28.241Z,6292
2018-09-04T08:23:28.758Z,6336
2018-09-04T08:24:28.225Z,6332
2018-09-04T08:25:28.213Z,6320
2018-09-04T08:26:28.199Z,6336
2018-09-04T08:27:28.455Z,6388
2018-09-04T08:28:28.451Z,6480
2018-09-04T08:29:27.912Z,6616
2018-09-04T08:30:28.697Z,6780
2018-09-04T08:31:28.423Z,6960
2018-09-04T08:32:28.679Z,7140
2018-09-04T08:33:28.990Z,7372
2018-09-04T08:34:28.663Z,7588
2018-09-04T08:35:28.122Z,7796
2018-09-04T08:36:28.382Z,7996
2018-09-04T08:37:28.367Z,8204
2018-09-04T08:38:28.373Z,8304
2018-09-04T08:39:28.342Z,8376
2018-09-04T08:40:28.612Z,8436
2018-09-04T08:41:28.071Z,8560
2018-09-04T08:42:28.328Z,8756
2018-09-04T08:43:28.060Z,9096
2018-09-04T08:44:27.778Z,9580
2018-09-04T08:45:28.302Z,10084
2018-09-04T08:46:28.559Z,10512
2018-09-04T08:47:28.431Z,10836
2018-09-04T08:48:28.554Z,11144
2018-09-04T08:49:28.267Z,11696
2018-09-04T08:50:28.650Z,12324
2018-09-04T08:51:28.255Z,12540
2018-09-04T08:52:28.247Z,12680
2018-09-04T08:53:28.458Z,12824
2018-09-04T08:54:28.228Z,12788
2018-09-04T08:55:28.444Z,12404
2018-09-04T08:56:27.959Z,12104
2018-09-04T08:57:27.680Z,11904
2018-09-04T08:58:28.320Z,11628
2018-09-04T08:59:28.188Z,11248
2018-09-04T09:00:28.237Z,10852
2018-09-04T09:01:28.179Z,10408
2018-09-04T09:02:28.171Z,9976
2018-09-04T09:03:28.163Z,9636
2018-09-04T09:04:28.418Z,9408
2018-09-04T09:05:28.235Z,9240
2018-09-04T09:06:27.608Z,9124
2018-09-04T09:07:28.132Z,8968
2018-09-04T09:08:28.599Z,8804
2018-09-04T09:09:28.109Z,8688
2018-09-04T09:10:28.112Z,8620
2018-09-04T09:11:28.105Z,8568
2018-09-04T09:12:28.357Z,8528
2018-09-04T09:13:28.091Z,8504
2018-09-04T09:14:28.072Z,8488
2018-09-04T09:15:27.854Z,8524
2018-09-04T09:16:27.529Z,8676
2018-09-04T09:17:28.054Z,8884
2018-09-04T09:18:28.053Z,9080
2018-09-04T09:19:28.045Z,9164
2018-09-04T09:20:27.776Z,9204
2018-09-04T09:21:27.763Z,9224
2018-09-04T09:22:28.030Z,9220
2018-09-04T09:23:28.471Z,9188
2018-09-04T09:24:27.751Z,9148
2018-09-04T09:25:28.259Z,9216
2018-09-04T09:26:27.987Z,9320
2018-09-04T09:27:27.714Z,9436
2018-09-04T09:28:27.970Z,9592
2018-09-04T09:29:27.965Z,9800
2018-09-04T09:30:27.426Z,9972
2018-09-04T09:31:27.686Z,10088
2018-09-04T09:32:28.221Z,10220
2018-09-04T09:33:28.209Z,10308
2018-09-04T09:34:27.947Z,10396
2018-09-04T09:35:27.662Z,10468
2018-09-04T09:36:28.019Z,10532
2018-09-04T09:37:27.924Z,10484
2018-09-04T09:38:27.905Z,10412
2018-09-04T09:39:27.894Z,10348
2018-09-04T09:40:27.893Z,10404
2018-09-04T09:41:27.615Z,10744
2018-09-04T09:42:27.341Z,12016
2018-09-04T09:43:27.875Z,13264
2018-09-04T09:44:27.863Z,14224
2018-09-04T09:45:28.124Z,15068
2018-09-04T09:46:28.108Z,15724
2018-09-04T09:47:27.833Z,16136
2018-09-04T09:48:27.304Z,18016
2018-09-04T09:49:27.830Z,16524
2018-09-04T09:50:27.825Z,15128
2018-09-04T09:51:27.806Z,14188
2018-09-04T09:52:28.221Z,13456
2018-09-04T09:53:28.169Z,12972
2018-09-04T09:54:27.915Z,12576
2018-09-04T09:55:27.524Z,12356
2018-09-04T09:56:27.809Z,12312
2018-09-04T09:57:27.833Z,12340
2018-09-04T09:58:28.039Z,12388
2018-09-04T09:59:28.017Z,12496
2018-09-04T10:00:27.755Z,12640
2018-09-04T10:01:27.774Z,12972
2018-09-04T10:02:27.484Z,13264
2018-09-04T10:03:27.734Z,12960
2018-09-04T10:04:27.460Z,13148
2018-09-04T10:05:28.069Z,13732
2018-09-04T10:06:27.983Z,14744
2018-09-04T10:07:27.839Z,15260
2018-09-04T10:08:27.746Z,15484
2018-09-04T10:09:27.697Z,15704
2018-09-04T10:10:27.173Z,16328
2018-09-04T10:11:27.472Z,16636
2018-09-04T10:12:27.675Z,18080
2018-09-04T10:13:27.934Z,18016
2018-09-04T10:14:27.672Z,17160
2018-09-04T10:15:27.923Z,17728
2018-09-04T10:16:27.920Z,17920
2018-09-04T10:17:27.656Z,18080
2018-09-04T10:18:27.375Z,18688
2018-09-04T10:19:27.959Z,19232
2018-09-04T10:20:27.900Z,19264
2018-09-04T10:21:28.407Z,18912
2018-09-04T10:22:27.357Z,18560
2018-09-04T10:23:27.612Z,18016
2018-09-04T10:24:27.871Z,17152
2018-09-04T10:25:27.600Z,16608
2018-09-04T10:26:27.700Z,16896
2018-09-04T10:27:27.905Z,16800
2018-09-04T10:28:27.587Z,16736
2018-09-04T10:29:27.851Z,16704
2018-09-04T10:30:27.574Z,16768
2018-09-04T10:31:27.568Z,17216
2018-09-04T10:32:27.569Z,18016
2018-09-04T10:33:27.817Z,18528
2018-09-04T10:34:27.816Z,19200
2018-09-04T10:35:27.803Z,19104
2018-09-04T10:36:27.871Z,18944
2018-09-04T10:37:27.801Z,19168
2018-09-04T10:38:27.795Z,19040
2018-09-04T10:39:27.530Z,19200
2018-09-04T10:40:27.943Z,18912
2018-09-04T10:41:27.243Z,18432
2018-09-04T10:42:27.770Z,17856
2018-09-04T10:43:27.240Z,17376
2018-09-04T10:44:27.428Z,17120
2018-09-04T10:45:27.758Z,17024
2018-09-04T10:46:27.757Z,17056
2018-09-04T10:47:27.748Z,17440
2018-09-04T10:48:26.955Z,17696
2018-09-04T10:49:27.753Z,18176
2018-09-04T10:50:27.207Z,19392
2018-09-04T10:51:27.741Z,20704
2018-09-04T10:52:26.931Z,22112
2018-09-04T10:53:27.719Z,22656
2018-09-04T10:54:27.453Z,22720
2018-09-04T10:55:27.181Z,23040
2018-09-04T10:56:27.188Z,24704
2018-09-04T10:57:27.436Z,23776
2018-09-04T10:58:27.172Z,22400
2018-09-04T10:59:27.430Z,23104
2018-09-04T11:00:27.695Z,23648
2018-09-04T11:01:27.421Z,22816
2018-09-04T11:02:28.155Z,23616
2018-09-04T11:03:27.419Z,32224
2018-09-04T11:04:27.416Z,28320
2018-09-04T11:05:27.403Z,28064
2018-09-04T11:06:27.396Z,31616
2018-09-04T11:07:27.420Z,29856
2018-09-04T11:08:27.400Z,21216
2018-09-04T11:09:27.599Z,20320
2018-09-04T11:10:27.394Z,22496
2018-09-04T11:11:27.657Z,28032
2018-09-04T11:12:27.374Z,23584
2018-09-04T11:13:27.382Z,22368
2018-09-04T11:14:27.383Z,25728
2018-09-04T11:15:27.109Z,24928
2018-09-04T11:16:27.362Z,29888
2018-09-04T11:17:27.633Z,43616
2018-09-04T11:18:27.361Z,51744
2018-09-04T11:19:27.630Z,56928
2018-09-04T11:20:27.362Z,57376
2018-09-04T11:21:27.617Z,55616
2018-09-04T11:22:27.356Z,54560
2018-09-04T11:23:27.557Z,53504
2018-09-04T11:24:27.361Z,52320
2018-09-04T11:25:27.103Z,51616
2018-09-04T11:26:27.364Z,49536
2018-09-04T11:27:27.620Z,49056
2018-09-04T11:28:27.617Z,50144
2018-09-04T11:29:27.104Z,52640
2018-09-04T11:30:27.098Z,56384
2018-09-04T11:31:27.624Z,58624
2018-09-04T11:32:27.111Z,59552
2018-09-04T11:33:27.098Z,58656
2018-09-04T11:34:27.367Z,57600
2018-09-04T11:35:27.368Z,59200
2018-09-04T11:36:27.107Z,58048
2018-09-04T11:37:27.111Z,59072
2018-09-04T11:38:27.376Z,58944
2018-09-04T11:39:27.126Z,56512
2018-09-04T11:40:27.126Z,56096
2018-09-04T11:41:27.662Z,55168
2018-09-04T11:42:26.864Z,58112
2018-09-04T11:43:27.664Z,60608
2018-09-04T11:44:27.674Z,62560
2018-09-04T11:45:27.423Z,62048
2018-09-04T11:46:27.142Z,60320
2018-09-04T11:47:27.419Z,57248
2018-09-04T11:48:27.421Z,52384
2018-09-04T11:49:27.686Z,50176
2018-09-04T11:50:27.175Z,49312
2018-09-04T11:51:27.701Z,50368
2018-09-04T11:52:27.310Z,53184
2018-09-04T11:53:27.708Z,55456
2018-09-04T11:54:27.191Z,58656
2018-09-04T11:55:27.512Z,54944
2018-09-04T11:56:27.473Z,48864
2018-09-04T11:57:27.202Z,63360
2018-09-04T11:58:27.785Z,62144
2018-09-04T11:59:27.512Z,62688
2018-09-04T12:00:27.481Z,49984
2018-09-04T12:01:26.963Z,35232
2018-09-04T12:02:27.500Z,63040
2018-09-04T12:03:27.558Z,27008
2018-09-04T12:04:27.250Z,40032
2018-09-04T12:05:27.828Z,48512
2018-09-04T12:06:27.298Z,63680
2018-09-04T12:07:27.814Z,37184
2018-09-04T12:08:27.536Z,47232
2018-09-04T12:09:27.576Z,29216
2018-09-04T12:10:27.536Z,40416
2018-09-04T12:11:27.811Z,30816
2018-09-04T12:12:27.813Z,18272
2018-09-04T12:13:27.289Z,17536
2018-09-04T12:14:28.077Z,16960
2018-09-04T12:15:27.562Z,15984
2018-09-04T12:16:27.838Z,16172
2018-09-04T12:17:27.568Z,16248
2018-09-04T12:18:27.855Z,15260
2018-09-04T12:19:28.055Z,15036
2018-09-04T12:20:27.582Z,15576
2018-09-04T12:21:27.329Z,16960
2018-09-04T12:22:27.851Z,16448
2018-09-04T12:23:27.327Z,15556
2018-09-04T12:24:27.629Z,15052
2018-09-04T12:25:27.593Z,15540
2018-09-04T12:26:27.596Z,15584
2018-09-04T12:27:27.827Z,14432
2018-09-04T12:28:27.600Z,13900
2018-09-04T12:29:27.601Z,13456
2018-09-04T12:30:27.862Z,13328
2018-09-04T12:31:27.599Z,13524
2018-09-04T12:32:27.616Z,13684
2018-09-04T12:33:27.339Z,13744
2018-09-04T12:34:27.622Z,13708
2018-09-04T12:35:27.076Z,13712
2018-09-04T12:36:28.026Z,13740
2018-09-04T12:37:27.601Z,14020
2018-09-04T12:38:27.869Z,14628
2018-09-04T12:39:27.869Z,15216
2018-09-04T12:40:27.861Z,15876
2018-09-04T12:41:27.862Z,17600
2018-09-04T12:42:27.733Z,20640
2018-09-04T12:43:27.857Z,22656
2018-09-04T12:44:27.943Z,20128
2018-09-04T12:45:27.862Z,21664
2018-09-04T12:46:27.633Z,27456
2018-09-04T12:47:27.330Z,30944
2018-09-04T12:48:27.946Z,31936
2018-09-04T12:49:27.069Z,37568
2018-09-04T12:50:27.326Z,52256
2018-09-04T12:51:27.580Z,43712
2018-09-04T12:52:27.597Z,50336
2018-09-04T12:53:27.864Z,49888
2018-09-04T12:54:27.321Z,54624
2018-09-04T12:55:27.863Z,60640
2018-09-04T12:56:27.584Z,65152
2018-09-04T12:57:27.859Z,67008
2018-09-04T12:58:27.594Z,64000
2018-09-04T12:59:27.324Z,60416
2018-09-04T13:00:27.866Z,58944
2018-09-04T13:01:27.602Z,57984
2018-09-04T13:02:27.602Z,57888
2018-09-04T13:03:27.615Z,58080
2018-09-04T13:04:27.605Z,60736
2018-09-04T13:05:27.612Z,50208
2018-09-04T13:06:27.880Z,43520
2018-09-04T13:07:27.888Z,48000
2018-09-04T13:08:27.630Z,44352
2018-09-04T13:09:27.362Z,58048
2018-09-04T13:10:27.628Z,59104
2018-09-04T13:11:27.639Z,54912
2018-09-04T13:12:27.641Z,23488
2018-09-04T13:13:27.379Z,15680
2018-09-04T13:14:27.766Z,31072
2018-09-04T13:15:27.922Z,13876
2018-09-04T13:16:27.392Z,13824
2018-09-04T13:17:27.924Z,12840
2018-09-04T13:18:27.400Z,40672
2018-09-04T13:19:27.139Z,39136
2018-09-04T13:20:27.939Z,13616
2018-09-04T13:21:27.676Z,13024
2018-09-04T13:22:27.944Z,13184
2018-09-04T13:23:27.681Z,11344
2018-09-04T13:24:28.266Z,20192
2018-09-04T13:25:27.722Z,14960
2018-09-04T13:26:27.961Z,46816
2018-09-04T13:27:27.698Z,37312
2018-09-04T13:28:27.976Z,41120
2018-09-04T13:29:27.446Z,42656
2018-09-04T13:30:27.703Z,44864
2018-09-04T13:31:27.710Z,48000
2018-09-04T13:32:27.711Z,46752
2018-09-04T13:33:27.711Z,45248
2018-09-04T13:34:27.318Z,52608
2018-09-04T13:35:27.718Z,52928
2018-09-04T13:36:27.909Z,52704
2018-09-04T13:37:27.730Z,51616
2018-09-04T13:38:27.998Z,51200
2018-09-04T13:39:27.464Z,50880